Time,TemperatureF,DewpointF,PressureIn,WindDirection,WindDirectionDegrees,WindSpeedMPH,WindSpeedGustMPH,Humidity,HourlyPrecipIn,Conditions,Clouds,dailyrainin,SoftwareType,DateUTC
2013-08-02 00:02:00,66.0,60.0,29.98,NE,51,0.0,1.0,81,0.00,,,0.10,,2013-08-02 04:02:00,
2013-08-02 00:22:00,65.0,59.0,29.98,NE,51,0.0,0.0,81,0.00,,,0.10,,2013-08-02 04:22:00,
2013-08-02 00:33:00,65.0,59.0,29.97,NE,51,0.0,0.0,81,0.00,,,0.10,,2013-08-02 04:33:00,
2013-08-02 00:53:00,64.0,59.0,29.97,NE,51,0.0,0.0,84,0.00,,,0.10,,2013-08-02 04:53:00,
2013-08-02 01:02:00,64.0,59.0,29.97,NE,51,0.0,0.0,84,0.00,,,0.10,,2013-08-02 05:02:00,
2013-08-02 01:12:00,64.0,59.0,29.97,NE,51,0.0,0.0,84,0.00,,,0.10,,2013-08-02 05:12:00,
2013-08-02 01:22:00,64.0,59.0,29.98,NE,51,0.0,0.0,84,0.00,,,0.10,,2013-08-02 05:22:00,
2013-08-02 01:32:00,64.0,59.0,29.98,NE,51,0.0,0.0,84,0.00,,,0.10,,2013-08-02 05:32:00,
2013-08-02 01:53:00,64.0,59.0,29.97,NE,53,0.0,2.0,85,0.00,,,0.10,,2013-08-02 05:53:00,
2013-08-02 02:02:00,63.0,59.0,29.97,NE,53,0.0,1.0,86,0.00,,,0.10,,2013-08-02 06:02:00,
2013-08-02 02:12:00,63.0,59.0,29.96,NE,53,0.0,2.0,87,0.00,,,0.10,,2013-08-02 06:12:00,
2013-08-02 02:22:00,63.0,59.0,29.96,NE,55,1.0,2.0,87,0.00,,,0.10,,2013-08-02 06:22:00,
2013-08-02 02:33:00,63.0,59.0,29.96,ENE,65,1.0,2.0,87,0.00,,,0.10,,2013-08-02 06:33:00,
2013-08-02 02:43:00,62.0,58.0,29.96,ENE,71,0.0,2.0,88,0.00,,,0.10,,2013-08-02 06:43:00,
2013-08-02 02:52:00,62.0,59.0,29.96,ENE,74,0.0,2.0,89,0.00,,,0.10,,2013-08-02 06:52:00,
2013-08-02 03:02:00,61.0,58.0,29.96,ENE,74,1.0,2.0,90,0.00,,,0.10,,2013-08-02 07:02:00,
2013-08-02 03:12:00,62.0,60.0,29.97,ENE,78,0.0,3.0,92,0.00,,,0.10,,2013-08-02 07:12:00,
2013-08-02 03:22:00,62.0,60.0,29.97,ENE,78,0.0,1.0,92,0.00,,,0.10,,2013-08-02 07:22:00,
2013-08-02 03:33:00,62.0,60.0,29.97,ENE,78,0.0,0.0,93,0.00,,,0.10,,2013-08-02 07:33:00,
2013-08-02 03:44:00,63.0,61.0,29.97,ENE,78,0.0,1.0,93,0.00,,,0.10,,2013-08-02 07:44:00,
2013-08-02 03:53:00,63.0,61.0,29.97,East,80,0.0,2.0,92,0.00,,,0.10,,2013-08-02 07:53:00,
2013-08-02 04:02:00,63.0,60.0,29.97,East,80,0.0,3.0,91,0.00,,,0.10,,2013-08-02 08:02:00,
2013-08-02 04:12:00,63.0,60.0,29.97,East,95,1.0,4.0,91,0.00,,,0.10,,2013-08-02 08:12:00,
2013-08-02 04:33:00,61.0,59.0,29.96,East,94,0.0,2.0,92,0.00,,,0.10,,2013-08-02 08:33:00,
2013-08-02 04:43:00,61.0,59.0,29.97,East,94,0.0,1.0,92,0.00,,,0.10,,2013-08-02 08:43:00,
2013-08-02 04:54:00,61.0,59.0,29.97,East,94,0.0,4.0,94,0.00,,,0.10,,2013-08-02 08:54:00,
2013-08-02 05:02:00,61.0,59.0,29.97,East,96,0.0,2.0,94,0.00,,,0.10,,2013-08-02 09:02:00,
2013-08-02 05:12:00,62.0,60.0,29.97,SSE,150,0.0,5.0,94,0.00,,,0.10,,2013-08-02 09:12:00,
2013-08-02 05:23:00,62.0,60.0,29.98,SSE,151,0.0,1.0,94,0.00,,,0.10,,2013-08-02 09:23:00,
2013-08-02 05:44:00,62.0,60.0,29.98,SSE,157,1.0,4.0,94,0.01,,,0.11,,2013-08-02 09:44:00,
2013-08-02 05:53:00,62.0,60.0,29.98,SSE,157,0.0,2.0,94,0.01,,,0.11,,2013-08-02 09:53:00,
2013-08-02 06:03:00,62.0,60.0,29.98,SSE,157,0.0,2.0,93,0.01,,,0.11,,2013-08-02 10:03:00,
2013-08-02 06:12:00,62.0,60.0,29.98,SSE,159,1.0,5.0,93,0.01,,,0.11,,2013-08-02 10:12:00,
2013-08-02 06:23:00,62.0,60.0,29.99,SSE,159,0.0,4.0,94,0.01,,,0.11,,2013-08-02 10:23:00,
2013-08-02 06:43:00,62.0,60.0,29.99,SSE,153,0.0,6.0,94,0.00,,,0.11,,2013-08-02 10:43:00,
2013-08-02 06:52:00,61.0,59.0,29.99,SSE,151,0.0,2.0,94,0.00,,,0.11,,2013-08-02 10:52:00,
2013-08-02 07:02:00,61.0,59.0,30.00,SSE,151,0.0,1.0,94,0.00,,,0.11,,2013-08-02 11:02:00,
2013-08-02 07:12:00,61.0,59.0,30.00,SSE,154,0.0,2.0,94,0.00,,,0.11,,2013-08-02 11:12:00,
2013-08-02 07:23:00,61.0,59.0,30.01,SSE,155,1.0,4.0,94,0.00,,,0.11,,2013-08-02 11:23:00,
2013-08-02 07:43:00,62.0,60.0,30.02,SSE,160,0.0,5.0,94,0.00,,,0.11,,2013-08-02 11:43:00,
2013-08-02 07:52:00,62.0,60.0,30.03,WSW,248,1.0,2.0,94,0.00,,,0.11,,2013-08-02 11:52:00,
2013-08-02 08:02:00,62.0,60.0,30.03,SSW,203,1.0,4.0,94,0.00,,,0.11,,2013-08-02 12:02:00,
2013-08-02 08:12:00,62.0,60.0,30.02,SSE,162,1.0,7.0,94,0.00,,,0.11,,2013-08-02 12:12:00,
2013-08-02 08:22:00,62.0,60.0,30.03,SSW,193,1.0,5.0,94,0.00,,,0.11,,2013-08-02 12:22:00,
2013-08-02 08:43:00,62.0,60.0,30.03,SSW,211,1.0,4.0,93,0.00,,,0.11,,2013-08-02 12:43:00,
2013-08-02 08:52:00,63.0,61.0,30.03,SW,218,1.0,3.0,93,0.00,,,0.11,,2013-08-02 12:52:00,
2013-08-02 09:03:00,63.0,61.0,30.03,SW,217,1.0,4.0,93,0.00,,,0.11,,2013-08-02 13:03:00,
2013-08-02 09:12:00,63.0,61.0,30.04,SW,217,0.0,4.0,93,0.00,,,0.11,,2013-08-02 13:12:00,
2013-08-02 09:22:00,64.0,62.0,30.03,SW,216,0.0,3.0,92,0.00,,,0.11,,2013-08-02 13:22:00,
2013-08-02 09:33:00,64.0,61.0,30.02,South,177,0.0,6.0,90,0.00,,,0.11,,2013-08-02 13:33:00,
2013-08-02 09:43:00,65.0,61.0,30.02,West,266,1.0,5.0,87,0.00,,,0.11,,2013-08-02 13:43:00,
2013-08-02 09:52:00,65.0,61.0,30.01,WNW,292,0.0,6.0,86,0.00,,,0.11,,2013-08-02 13:52:00,
2013-08-02 10:02:00,66.0,61.0,30.02,WNW,283,2.0,5.0,85,0.00,,,0.11,,2013-08-02 14:02:00,
2013-08-02 10:22:00,67.0,62.0,30.02,West,267,3.0,5.0,83,0.00,,,0.11,,2013-08-02 14:22:00,
2013-08-02 10:32:00,67.0,60.0,30.02,SSW,207,0.0,6.0,78,0.00,,,0.11,,2013-08-02 14:32:00,
2013-08-02 10:43:00,68.0,60.0,30.02,West,276,5.0,7.0,76,0.00,,,0.11,,2013-08-02 14:43:00,
2013-08-02 10:53:00,68.0,59.0,30.02,NW,306,4.0,7.0,74,0.00,,,0.11,,2013-08-02 14:53:00,
2013-08-02 11:03:00,69.0,60.0,30.03,WNW,302,4.0,8.0,73,0.00,,,0.11,,2013-08-02 15:03:00,
2013-08-02 11:12:00,69.0,61.0,30.03,West,260,4.0,9.0,76,0.00,,,0.11,,2013-08-02 15:12:00,
2013-08-02 11:22:00,69.0,60.0,30.03,West,275,2.0,7.0,73,0.00,,,0.11,,2013-08-02 15:22:00,
2013-08-02 11:32:00,69.0,61.0,30.03,NW,309,5.0,8.0,75,0.00,,,0.11,,2013-08-02 15:32:00,
2013-08-02 11:43:00,69.0,60.0,30.03,SW,215,1.0,7.0,74,0.00,,,0.11,,2013-08-02 15:43:00,
2013-08-02 11:52:00,69.0,60.0,30.04,WNW,290,2.0,6.0,74,0.00,,,0.11,,2013-08-02 15:52:00,
2013-08-02 12:22:00,71.0,61.0,30.03,WNW,292,7.0,14.0,71,0.00,,,0.11,,2013-08-02 16:22:00,
2013-08-02 12:32:00,71.0,59.0,30.03,WNW,293,6.0,14.0,67,0.00,,,0.11,,2013-08-02 16:32:00,
2013-08-02 12:43:00,72.0,61.0,30.04,WNW,290,7.0,13.0,69,0.00,,,0.11,,2013-08-02 16:43:00,
2013-08-02 12:52:00,71.0,59.0,30.03,WSW,257,5.0,13.0,65,0.00,,,0.11,,2013-08-02 16:52:00,
2013-08-02 13:02:00,71.0,59.0,30.03,NNW,337,7.0,13.0,67,0.00,,,0.11,,2013-08-02 17:02:00,
2013-08-02 13:12:00,72.0,59.0,30.03,SW,231,4.0,13.0,63,0.00,,,0.11,,2013-08-02 17:12:00,
2013-08-02 13:35:00,71.0,59.0,30.04,West,279,5.0,11.0,66,0.00,,,0.11,,2013-08-02 17:35:00,
2013-08-02 13:43:00,72.0,60.0,30.04,ESE,122,3.0,13.0,65,0.00,,,0.11,,2013-08-02 17:43:00,
2013-08-02 13:52:00,73.0,59.0,30.04,West,275,8.0,15.0,61,0.00,,,0.11,,2013-08-02 17:52:00,
2013-08-02 14:12:00,73.0,57.0,30.03,West,260,7.0,18.0,58,0.00,,,0.11,,2013-08-02 18:12:00,
2013-08-02 14:22:00,72.0,58.0,30.04,WSW,250,7.0,15.0,61,0.00,,,0.11,,2013-08-02 18:22:00,
2013-08-02 14:43:00,73.0,58.0,30.04,WNW,285,7.0,16.0,60,0.00,,,0.11,,2013-08-02 18:43:00,
2013-08-02 14:52:00,73.0,59.0,30.04,NW,316,8.0,16.0,62,0.00,,,0.11,,2013-08-02 18:52:00,
2013-08-02 15:43:00,74.0,60.0,30.05,NW,311,9.0,12.0,62,0.00,,,0.11,,2013-08-02 19:43:00,
2013-08-02 15:52:00,74.0,60.0,30.05,WNW,294,7.0,14.0,61,0.00,,,0.01,,2013-08-02 19:52:00,
2013-08-02 16:02:00,73.0,60.0,30.05,NW,313,7.0,13.0,64,0.00,,,0.01,,2013-08-02 20:02:00,
2013-08-02 16:43:00,74.0,61.0,30.03,WSW,250,4.0,10.0,63,0.00,,,0.01,,2013-08-02 20:43:00,
2013-08-02 16:52:00,74.0,60.0,30.02,WSW,250,4.0,9.0,61,0.00,,,0.01,,2013-08-02 20:52:00,
2013-08-02 17:03:00,74.0,59.0,30.01,SSW,211,2.0,11.0,60,0.00,,,0.01,,2013-08-02 21:03:00,
2013-08-02 17:22:00,75.0,61.0,30.01,WSW,240,4.0,11.0,61,0.00,,,0.01,,2013-08-02 21:22:00,
2013-08-02 17:53:00,75.0,61.0,30.04,NNW,332,3.0,16.0,61,0.00,,,0.01,,2013-08-02 21:53:00,
2013-08-02 18:03:00,75.0,60.0,30.03,WNW,290,7.0,13.0,59,0.00,,,0.01,,2013-08-02 22:03:00,
2013-08-02 18:22:00,74.0,60.0,30.03,West,265,8.0,15.0,61,0.00,,,0.01,,2013-08-02 22:22:00,
2013-08-02 18:43:00,75.0,62.0,30.03,WNW,295,4.0,12.0,63,0.00,,,0.01,,2013-08-02 22:43:00,
2013-08-02 18:52:00,75.0,62.0,30.03,WNW,292,3.0,9.0,64,0.00,,,0.01,,2013-08-02 22:52:00,
2013-08-02 19:02:00,74.0,61.0,30.04,WNW,298,3.0,8.0,64,0.00,,,0.01,,2013-08-02 23:02:00,
2013-08-02 19:12:00,73.0,61.0,30.04,West,275,3.0,13.0,65,0.00,,,0.01,,2013-08-02 23:12:00,
2013-08-02 19:22:00,73.0,61.0,30.03,WSW,246,3.0,8.0,66,0.00,,,0.01,,2013-08-02 23:22:00,
2013-08-02 19:32:00,73.0,61.0,30.04,West,271,1.0,9.0,65,0.00,,,0.01,,2013-08-02 23:32:00,
2013-08-02 19:43:00,73.0,61.0,30.03,West,277,2.0,8.0,66,0.00,,,0.01,,2013-08-02 23:43:00,
2013-08-02 19:53:00,73.0,61.0,30.03,West,277,1.0,6.0,67,0.00,,,0.01,,2013-08-02 23:53:00,
2013-08-02 20:02:00,73.0,61.0,30.03,SSW,196,0.0,5.0,67,0.00,,,0.01,,2013-08-03 00:02:00,
2013-08-02 20:12:00,73.0,62.0,30.03,SSW,196,1.0,3.0,68,0.00,,,0.01,,2013-08-03 00:12:00,
2013-08-02 20:22:00,72.0,61.0,30.03,SSW,196,0.0,3.0,69,0.00,,,0.01,,2013-08-03 00:22:00,
2013-08-02 20:43:00,71.0,61.0,30.03,SSW,200,0.0,3.0,71,0.00,,,0.01,,2013-08-03 00:43:00,
2013-08-02 20:52:00,70.0,61.0,30.04,SSW,201,0.0,2.0,73,0.00,,,0.01,,2013-08-03 00:52:00,
2013-08-02 21:03:00,69.0,60.0,30.03,SW,232,0.0,3.0,74,0.00,,,0.01,,2013-08-03 01:03:00,
2013-08-02 21:12:00,69.0,60.0,30.03,SW,232,0.0,2.0,74,0.00,,,0.01,,2013-08-03 01:12:00,
2013-08-02 21:22:00,69.0,61.0,30.03,SW,232,0.0,3.0,75,0.00,,,0.01,,2013-08-03 01:22:00,
2013-08-02 21:33:00,69.0,61.0,30.03,SW,232,0.0,3.0,75,0.00,,,0.01,,2013-08-03 01:33:00,
2013-08-02 21:42:00,69.0,61.0,30.04,SW,232,0.0,2.0,75,0.00,,,0.01,,2013-08-03 01:42:00,
2013-08-02 21:53:00,68.0,60.0,30.05,SW,232,0.0,2.0,76,0.00,,,0.01,,2013-08-03 01:53:00,
2013-08-02 22:02:00,68.0,60.0,30.05,SW,232,0.0,2.0,76,0.00,,,0.01,,2013-08-03 02:02:00,
2013-08-02 22:12:00,68.0,61.0,30.06,South,184,0.0,5.0,77,0.00,,,0.01,,2013-08-03 02:12:00,
2013-08-02 22:32:00,68.0,60.0,30.06,SW,214,1.0,11.0,76,0.00,,,0.01,,2013-08-03 02:32:00,
2013-08-02 22:43:00,68.0,61.0,30.06,West,271,3.0,5.0,77,0.00,,,0.01,,2013-08-03 02:43:00,
2013-08-02 22:52:00,68.0,61.0,30.06,WSW,238,0.0,4.0,77,0.00,,,0.01,,2013-08-03 02:52:00,
2013-08-02 23:53:00,67.0,60.0,30.06,South,189,0.0,7.0,79,0.00,,,0.01,,2013-08-03 03:53:00,